createdAt,value
2022-08-11T00:00:55.508Z,100.00
2022-08-11T00:03:42.355Z,100.00
2022-08-11T00:06:02.010Z,100.00
2022-08-11T00:08:35.176Z,100.00
2022-08-11T00:11:09.249Z,100.00
2022-08-11T00:13:46.149Z,100.00
2022-08-11T00:16:19.650Z,100.00
2022-08-11T00:18:53.389Z,100.00
2022-08-11T00:22:02.973Z,100.00
2022-08-11T00:24:04.530Z,100.00
2022-08-11T00:26:36.724Z,100.00
2022-08-11T00:29:12.542Z,100.00
2022-08-11T00:31:49.237Z,100.00
2022-08-11T00:34:25.902Z,100.00
2022-08-11T00:37:22.135Z,100.00
2022-08-11T00:39:53.841Z,100.00
2022-08-11T00:42:44.376Z,100.00
2022-08-11T00:45:37.839Z,100.00
2022-08-11T00:48:28.440Z,100.00
2022-08-11T00:51:18.927Z,100.00
2022-08-11T00:54:21.606Z,100.00
2022-08-11T00:57:01.338Z,100.00
2022-08-11T00:59:51.338Z,100.00
2022-08-11T01:02:42.026Z,100.00
2022-08-11T01:05:44.786Z,100.00
2022-08-11T01:08:21.570Z,100.00
2022-08-11T01:11:28.637Z,100.00
2022-08-11T01:14:34.227Z,100.00
2022-08-11T01:17:09.552Z,100.00
2022-08-11T01:20:47.639Z,100.00
2022-08-11T01:22:53.975Z,100.00
2022-08-11T01:25:57.613Z,100.00
2022-08-11T01:28:54.584Z,100.00
2022-08-11T01:31:51.205Z,100.00
2022-08-11T01:34:58.165Z,100.00
2022-08-11T01:37:48.651Z,100.00
2022-08-11T01:40:28.107Z,100.00
2022-08-11T01:43:41.515Z,100.00
2022-08-11T01:46:17.158Z,100.00
2022-08-11T01:50:06.781Z,100.00
2022-08-11T01:52:05.071Z,100.00
2022-08-11T01:54:38.809Z,100.00
2022-08-11T01:57:31.457Z,100.00
2022-08-11T02:00:17.298Z,100.00
2022-08-11T02:02:48.917Z,100.00
2022-08-11T02:05:50.857Z,100.00
2022-08-11T02:08:33.166Z,100.00
2022-08-11T02:11:26.417Z,100.00
2022-08-11T02:14:14.060Z,100.00
2022-08-11T02:17:21.506Z,100.00
2022-08-11T02:20:35.837Z,100.00
2022-08-11T02:24:05.579Z,100.00
2022-08-11T02:26:03.110Z,100.00
2022-08-11T02:28:54.019Z,100.00
2022-08-11T02:32:17.162Z,100.00
2022-08-11T02:35:08.528Z,100.00
2022-08-11T02:37:43.801Z,100.00
2022-08-11T02:40:41.337Z,100.00
2022-08-11T02:43:15.568Z,100.00
2022-08-11T02:45:55.214Z,100.00
2022-08-11T02:48:52.863Z,100.00
2022-08-11T02:51:38.453Z,100.00
2022-08-11T02:54:15.013Z,100.00
2022-08-11T02:56:56.331Z,100.00
2022-08-11T02:59:51.347Z,100.00
2022-08-11T03:02:54.072Z,100.00
2022-08-11T03:05:44.678Z,100.00
2022-08-11T03:08:55.153Z,100.00
2022-08-11T03:11:52.776Z,100.00
2022-08-11T03:14:50.459Z,100.00
2022-08-11T03:17:30.391Z,100.00
2022-08-11T03:20:37.820Z,100.00
2022-08-11T03:23:19.822Z,100.00
2022-08-11T03:26:00.405Z,100.00
2022-08-11T03:28:50.890Z,100.00
2022-08-11T03:31:39.955Z,100.00
2022-08-11T03:34:19.621Z,100.00
2022-08-11T03:37:45.178Z,100.00
2022-08-11T03:40:23.379Z,100.00
2022-08-11T03:43:03.890Z,100.00
2022-08-11T03:45:55.975Z,100.00
2022-08-11T03:48:58.436Z,100.00
2022-08-11T03:51:44.786Z,100.00
2022-08-11T03:54:35.437Z,100.00
2022-08-11T03:57:28.687Z,100.00
2022-08-11T04:00:19.576Z,100.00
2022-08-11T04:03:09.843Z,100.00
2022-08-11T04:06:07.933Z,100.00
2022-08-11T04:08:50.957Z,100.00
2022-08-11T04:11:42.566Z,100.00
2022-08-11T04:15:07.626Z,100.00
2022-08-11T04:18:11.106Z,100.00
2022-08-11T04:21:04.558Z,100.00
2022-08-11T04:24:36.492Z,100.00
2022-08-11T04:26:16.224Z,100.00
2022-08-11T04:29:14.248Z,100.00
2022-08-11T04:32:07.777Z,100.00
2022-08-11T04:34:57.989Z,100.00
2022-08-11T04:37:51.242Z,100.00
2022-08-11T04:40:35.407Z,100.00
2022-08-11T04:43:33.253Z,100.00
2022-08-11T04:46:23.841Z,100.00
2022-08-11T04:49:35.511Z,100.00
2022-08-11T04:52:44.206Z,100.00
2022-08-11T04:55:51.481Z,100.00
2022-08-11T04:58:50.444Z,100.00
2022-08-11T05:01:43.976Z,100.00
2022-08-11T05:04:52.497Z,100.00
2022-08-11T05:07:32.152Z,100.00
2022-08-11T05:10:12.204Z,100.00
2022-08-11T05:12:52.263Z,100.00
2022-08-11T05:15:47.153Z,100.00
2022-08-11T05:18:37.531Z,100.00
2022-08-11T05:21:44.747Z,100.00
2022-08-11T05:24:34.971Z,100.00
2022-08-11T05:27:27.009Z,100.00
2022-08-11T05:30:34.320Z,100.00
2022-08-11T05:33:23.850Z,100.00
2022-08-11T05:36:12.999Z,100.00
2022-08-11T05:39:05.860Z,100.00
2022-08-11T05:41:55.412Z,100.00
2022-08-11T05:44:46.409Z,100.00
2022-08-11T05:47:44.687Z,100.00
2022-08-11T05:50:37.241Z,100.00
2022-08-11T05:53:37.327Z,100.00
2022-08-11T05:56:25.079Z,100.00
2022-08-11T05:58:58.259Z,100.00
2022-08-11T06:01:32.141Z,100.00
2022-08-11T06:04:17.899Z,100.00
2022-08-11T06:06:55.376Z,100.00
2022-08-11T06:09:29.632Z,100.00
2022-08-11T06:12:10.410Z,100.00
2022-08-11T06:14:46.649Z,100.00
2022-08-11T06:17:26.701Z,100.00
2022-08-11T06:20:08.560Z,100.00
2022-08-11T06:22:41.255Z,100.00
2022-08-11T06:25:13.714Z,100.00
2022-08-11T06:27:46.994Z,100.00
2022-08-11T06:30:41.168Z,100.00
2022-08-11T06:33:15.289Z,100.00
2022-08-11T06:36:11.722Z,100.00
2022-08-11T06:39:02.849Z,100.00
2022-08-11T06:41:54.279Z,100.00
2022-08-11T06:44:37.807Z,100.00
2022-08-11T06:47:14.673Z,100.00
2022-08-11T06:53:06.763Z,100.00
2022-08-11T06:56:00.566Z,100.00
2022-08-11T06:58:52.211Z,100.00
2022-08-11T07:01:52.065Z,100.00
2022-08-11T07:04:32.297Z,100.00
2022-08-11T07:07:41.040Z,100.00
2022-08-11T07:10:42.154Z,100.00
2022-08-11T07:13:44.512Z,100.00
2022-08-11T07:16:12.655Z,100.00
2022-08-11T07:19:01.761Z,100.00
2022-08-11T07:22:03.012Z,100.00
2022-08-11T07:24:59.100Z,100.00
2022-08-11T07:27:41.975Z,100.00
2022-08-11T07:30:14.216Z,100.00
2022-08-11T07:32:54.129Z,100.00
2022-08-11T07:35:40.297Z,100.00
2022-08-11T07:38:22.849Z,100.00
2022-08-11T07:40:53.454Z,100.00
2022-08-11T07:43:24.686Z,100.00
2022-08-11T07:46:15.604Z,100.00
2022-08-11T07:49:04.847Z,100.00
2022-08-11T07:51:55.891Z,100.00
2022-08-11T07:54:28.191Z,100.00
2022-08-11T07:57:09.036Z,100.00
2022-08-11T08:00:03.958Z,100.00
2022-08-11T08:02:43.577Z,100.00
2022-08-11T08:05:34.154Z,100.00
2022-08-11T08:08:24.678Z,100.00
2022-08-11T08:11:16.194Z,100.00
2022-08-11T08:14:07.790Z,100.00
2022-08-11T08:16:58.708Z,100.00
2022-08-11T08:19:30.703Z,100.00
2022-08-11T08:22:37.295Z,100.00
2022-08-11T08:24:36.795Z,100.00
2022-08-11T08:27:08.517Z,100.00
2022-08-11T08:29:58.757Z,100.00
2022-08-11T08:32:30.679Z,100.00
2022-08-11T08:35:02.431Z,100.00
2022-08-11T08:37:47.222Z,100.00
2022-08-11T08:40:09.935Z,100.00
2022-08-11T08:42:45.523Z,100.00
2022-08-11T08:45:18.882Z,100.00
2022-08-11T08:48:07.988Z,100.00
2022-08-11T08:51:00.167Z,97.85
2022-08-11T08:53:34.631Z,97.49
2022-08-11T08:56:07.296Z,90.92
2022-08-11T08:58:40.398Z,100.00
2022-08-11T09:01:13.342Z,78.80
2022-08-11T09:04:06.752Z,72.94
2022-08-11T09:06:18.291Z,72.55
2022-08-11T09:08:51.946Z,78.09
2022-08-11T09:11:43.419Z,70.33
2022-08-11T09:14:15.401Z,70.86
2022-08-11T09:16:48.601Z,68.30
2022-08-11T09:19:21.546Z,67.10
2022-08-11T09:22:12.190Z,70.21
2022-08-11T09:25:01.978Z,68.05
2022-08-11T09:27:34.631Z,72.63
2022-08-11T09:30:07.930Z,68.78
2022-08-11T09:32:42.351Z,68.17
2022-08-11T09:35:15.198Z,73.01
2022-08-11T09:38:04.594Z,79.39
2022-08-11T09:40:36.373Z,71.04
2022-08-11T09:43:27.630Z,78.25
2022-08-11T09:46:00.536Z,85.77
2022-08-11T09:48:40.093Z,80.10
2022-08-11T09:51:12.691Z,78.81
2022-08-11T09:53:47.122Z,73.16
2022-08-11T09:56:40.682Z,80.80
2022-08-11T09:59:12.552Z,69.78
2022-08-11T10:01:49.583Z,68.38
2022-08-11T10:04:26.566Z,61.11
2022-08-11T10:07:05.738Z,57.90
2022-08-11T10:09:52.346Z,54.72
2022-08-11T10:12:30.216Z,58.40
2022-08-11T10:15:24.573Z,55.26
2022-08-11T10:18:19.576Z,61.28
2022-08-11T10:20:55.438Z,57.88
2022-08-11T10:24:01.472Z,53.54
2022-08-11T10:26:40.111Z,54.63
2022-08-11T10:29:36.723Z,52.43
2022-08-11T10:32:27.808Z,49.57
2022-08-11T10:35:00.102Z,47.84
2022-08-11T10:38:15.614Z,52.36
2022-08-11T10:40:08.565Z,56.09
2022-08-11T10:42:59.257Z,61.19
2022-08-11T10:45:51.908Z,59.30
2022-08-11T10:48:25.330Z,62.60
2022-08-11T10:51:15.481Z,55.70
2022-08-11T10:54:11.518Z,55.52
2022-08-11T10:57:01.826Z,49.18
2022-08-11T10:59:35.635Z,50.80
2022-08-11T11:02:07.332Z,48.19
2022-08-11T11:04:51.590Z,48.11
2022-08-11T11:07:30.026Z,46.31
2022-08-11T11:10:07.569Z,48.53
2022-08-11T11:13:08.391Z,49.81
2022-08-11T11:15:59.803Z,48.03
2022-08-11T11:18:35.300Z,49.21
2022-08-11T11:21:09.281Z,47.39
2022-08-11T11:24:06.616Z,48.58
2022-08-11T11:26:54.350Z,46.79
2022-08-11T11:29:57.314Z,45.90
2022-08-11T11:32:53.636Z,43.52
2022-08-11T11:35:39.653Z,45.81
2022-08-11T11:38:14.131Z,44.07
2022-08-11T11:40:44.393Z,45.40
2022-08-11T11:43:15.466Z,41.26
2022-08-11T11:45:48.062Z,42.80
2022-08-11T11:48:20.519Z,43.03
2022-08-11T11:50:53.741Z,43.83
2022-08-11T11:53:25.205Z,49.53
2022-08-11T11:55:57.406Z,48.85
2022-08-11T11:58:48.513Z,52.90
2022-08-11T12:01:23.176Z,44.28
2022-08-11T12:03:55.729Z,46.04
2022-08-11T12:06:41.943Z,44.55
2022-08-11T12:09:16.855Z,44.22
2022-08-11T12:12:05.649Z,44.62
2022-08-11T12:14:38.626Z,39.97
2022-08-11T12:17:09.688Z,43.07
2022-08-11T12:19:40.676Z,44.21
2022-08-11T12:22:33.408Z,42.42
2022-08-11T12:25:24.841Z,42.64
2022-08-11T12:27:57.574Z,42.24
2022-08-11T12:30:28.642Z,41.13
2022-08-11T12:32:59.932Z,41.49
2022-08-11T12:35:31.289Z,40.75
2022-08-11T12:38:10.832Z,39.10
2022-08-11T12:41:14.945Z,41.66
2022-08-11T12:43:56.412Z,42.32
2022-08-11T12:46:25.492Z,41.94
2022-08-11T12:49:17.285Z,44.82
2022-08-11T12:52:14.914Z,44.61
2022-08-11T12:54:54.786Z,43.40
2022-08-11T12:57:55.472Z,42.76
2022-08-11T13:00:46.238Z,40.07
2022-08-11T13:03:37.071Z,40.69
2022-08-11T13:06:09.676Z,42.37
2022-08-11T13:08:42.710Z,40.78
2022-08-11T13:11:55.739Z,41.73
2022-08-11T13:14:15.281Z,42.88
2022-08-11T13:17:04.463Z,44.43
2022-08-11T13:19:36.659Z,45.24
2022-08-11T13:22:08.723Z,45.88
2022-08-11T13:24:41.190Z,45.73
2022-08-11T13:27:14.281Z,43.32
2022-08-11T13:29:47.533Z,44.97
2022-08-11T13:32:20.511Z,40.23
2022-08-11T13:34:52.000Z,39.31
2022-08-11T13:38:18.843Z,41.01
2022-08-11T13:39:59.032Z,39.11
2022-08-11T13:42:30.501Z,38.78
2022-08-11T13:45:02.129Z,38.98
2022-08-11T13:47:33.793Z,38.45
2022-08-11T13:50:08.651Z,39.54
2022-08-11T13:52:42.748Z,40.28
2022-08-11T13:55:50.949Z,38.90
2022-08-11T13:58:08.060Z,38.05
2022-08-11T14:00:27.771Z,38.24
2022-08-11T14:02:58.243Z,36.44
2022-08-11T14:05:35.009Z,37.73
2022-08-11T14:08:08.970Z,35.45
2022-08-11T14:10:42.226Z,35.84
2022-08-11T14:13:42.256Z,36.18
2022-08-11T14:16:09.582Z,37.01
2022-08-11T14:18:43.700Z,38.54
2022-08-11T14:21:37.433Z,38.30
2022-08-11T14:24:10.819Z,37.08
2022-08-11T14:26:44.617Z,37.07
2022-08-11T14:29:22.010Z,39.73
2022-08-11T14:31:58.275Z,37.45
2022-08-11T14:34:31.171Z,39.04
2022-08-11T14:37:15.336Z,38.05
2022-08-11T14:39:52.509Z,38.82
2022-08-11T14:42:44.025Z,35.68
2022-08-11T14:45:54.222Z,36.31
2022-08-11T14:48:11.311Z,36.00
2022-08-11T14:50:42.914Z,36.49
2022-08-11T14:53:16.106Z,36.90
2022-08-11T14:56:07.271Z,37.50
2022-08-11T14:58:40.376Z,36.70
2022-08-11T15:01:30.785Z,35.88
2022-08-11T15:04:34.507Z,35.71
2022-08-11T15:06:35.707Z,36.36
2022-08-11T15:09:09.255Z,36.67
2022-08-11T15:12:00.294Z,37.07
2022-08-11T15:14:55.800Z,37.62
2022-08-11T15:17:24.223Z,38.19
2022-08-11T15:20:18.364Z,38.03
2022-08-11T15:23:07.916Z,36.83
2022-08-11T15:25:41.606Z,37.93
2022-08-11T15:28:32.864Z,37.87
2022-08-11T15:31:23.418Z,37.85
2022-08-11T15:34:16.473Z,37.89
2022-08-11T15:37:08.796Z,38.74
2022-08-11T15:39:44.307Z,38.43
2022-08-11T15:42:36.097Z,38.50
2022-08-11T15:45:28.239Z,39.04
2022-08-11T15:48:05.356Z,39.33
2022-08-11T15:50:39.966Z,39.75
2022-08-11T15:53:22.622Z,38.10
2022-08-11T15:55:55.127Z,36.97
2022-08-11T15:58:47.177Z,36.79
2022-08-11T16:01:41.434Z,38.84
2022-08-11T16:04:16.123Z,38.76
2022-08-11T16:06:52.652Z,39.37
2022-08-11T16:09:48.143Z,41.32
2022-08-11T16:12:09.846Z,37.83
2022-08-11T16:15:04.696Z,38.77
2022-08-11T16:17:53.690Z,40.45
2022-08-11T16:20:27.765Z,37.98
2022-08-11T16:23:02.767Z,38.17
2022-08-11T16:27:02.078Z,38.52
2022-08-11T16:28:10.348Z,38.34
2022-08-11T16:30:46.821Z,37.78
2022-08-11T16:33:48.527Z,37.94
2022-08-11T16:36:11.795Z,37.63
2022-08-11T16:38:44.409Z,38.43
2022-08-11T16:41:19.648Z,38.01
2022-08-11T16:44:09.812Z,40.01
2022-08-11T16:46:59.156Z,38.28
2022-08-11T16:49:53.219Z,38.96
2022-08-11T16:52:25.521Z,38.88
2022-08-11T16:54:56.725Z,38.95
2022-08-11T16:57:46.890Z,39.11
2022-08-11T17:00:19.740Z,39.65
2022-08-11T17:03:15.574Z,39.71
2022-08-11T17:06:06.791Z,41.00
2022-08-11T17:09:01.762Z,41.49
2022-08-11T17:11:53.487Z,39.41
2022-08-11T17:14:36.507Z,40.16
2022-08-11T17:17:10.545Z,40.54
2022-08-11T17:20:42.821Z,41.14
2022-08-11T17:22:49.573Z,41.95
2022-08-11T17:25:23.590Z,42.88
2022-08-11T17:27:55.984Z,44.50
2022-08-11T17:30:32.349Z,46.03
2022-08-11T17:33:21.758Z,42.82
2022-08-11T17:35:53.068Z,44.75
2022-08-11T17:38:25.828Z,45.61
2022-08-11T17:41:23.367Z,48.35
2022-08-11T17:44:09.579Z,49.99
2022-08-11T17:47:05.186Z,54.50
2022-08-11T17:49:35.494Z,55.43
2022-08-11T17:52:22.330Z,56.64
2022-08-11T17:55:14.833Z,60.00
2022-08-11T17:58:06.033Z,65.38
2022-08-11T18:00:37.871Z,67.55
2022-08-11T18:03:28.030Z,76.67
2022-08-11T18:06:01.736Z,96.27
2022-08-11T18:08:52.816Z,100.00
2022-08-11T18:12:06.939Z,90.76
2022-08-11T18:14:38.016Z,91.51
2022-08-11T18:17:28.478Z,92.60
2022-08-11T18:20:17.870Z,85.43
2022-08-11T18:23:09.270Z,82.72
2022-08-11T18:26:07.254Z,87.35
2022-08-11T18:29:01.078Z,81.42
2022-08-11T18:31:54.416Z,84.71
2022-08-11T18:34:48.302Z,88.38
2022-08-11T18:37:46.052Z,90.37
2022-08-11T18:40:38.797Z,84.07
2022-08-11T18:43:31.448Z,89.56
2022-08-11T18:46:23.486Z,89.35
2022-08-11T18:50:02.253Z,100.00
2022-08-11T18:52:25.441Z,100.00
2022-08-11T18:55:17.131Z,100.00
2022-08-11T18:58:08.799Z,92.54
2022-08-11T19:01:00.455Z,88.24
2022-08-11T19:03:51.484Z,82.51
2022-08-11T19:06:43.730Z,91.86
2022-08-11T19:09:35.414Z,97.65
2022-08-11T19:12:27.368Z,100.00
2022-08-11T19:15:20.310Z,100.00
2022-08-11T19:18:11.826Z,100.00
2022-08-11T19:21:04.138Z,100.00
2022-08-11T19:23:58.740Z,100.00
2022-08-11T19:26:50.355Z,100.00
2022-08-11T19:30:05.029Z,100.00
2022-08-11T19:32:34.249Z,100.00
2022-08-11T19:35:24.783Z,100.00
2022-08-11T19:38:15.786Z,100.00
2022-08-11T19:41:06.276Z,100.00
2022-08-11T19:43:57.886Z,100.00
2022-08-11T19:46:47.605Z,100.00
2022-08-11T19:49:37.844Z,100.00
2022-08-11T19:52:28.229Z,100.00
2022-08-11T19:55:18.320Z,100.00
2022-08-11T19:58:09.130Z,100.00
2022-08-11T20:00:59.217Z,100.00
2022-08-11T20:03:48.572Z,100.00
2022-08-11T20:06:41.436Z,100.00
2022-08-11T20:10:04.589Z,100.00
2022-08-11T20:12:25.165Z,100.00
2022-08-11T20:15:16.567Z,100.00
2022-08-11T20:18:08.085Z,100.00
2022-08-11T20:20:59.932Z,100.00
2022-08-11T20:23:49.548Z,100.00
2022-08-11T20:26:40.381Z,100.00
2022-08-11T20:29:30.889Z,100.00
2022-08-11T20:32:21.475Z,100.00
2022-08-11T20:35:12.571Z,100.00
2022-08-11T20:38:04.359Z,100.00
2022-08-11T20:40:56.115Z,100.00
2022-08-11T20:44:07.632Z,100.00
2022-08-11T20:46:41.675Z,100.00
2022-08-11T20:49:45.140Z,100.00
2022-08-11T20:52:28.160Z,100.00
2022-08-11T20:55:19.302Z,100.00
2022-08-11T20:58:17.690Z,100.00
2022-08-11T21:01:02.630Z,100.00
2022-08-11T21:06:44.521Z,100.00
2022-08-11T21:09:58.611Z,100.00
2022-08-11T21:12:29.709Z,100.00
2022-08-11T21:15:39.199Z,100.00
2022-08-11T21:18:28.457Z,100.00
2022-08-11T21:21:08.331Z,100.00
2022-08-11T21:24:00.946Z,100.00
2022-08-11T21:26:53.180Z,100.00
2022-08-11T21:29:45.108Z,100.00
2022-08-11T21:32:36.606Z,100.00
2022-08-11T21:35:27.424Z,100.00
2022-08-11T21:38:18.420Z,100.00
2022-08-11T21:41:10.575Z,100.00
2022-08-11T21:44:03.552Z,100.00
2022-08-11T21:46:56.136Z,100.00
2022-08-11T21:49:45.905Z,100.00
2022-08-11T21:52:35.671Z,100.00
2022-08-11T21:55:25.961Z,100.00
2022-08-11T21:58:17.374Z,100.00
2022-08-11T22:01:06.399Z,100.00
2022-08-11T22:03:57.442Z,100.00
2022-08-11T22:06:47.418Z,100.00
2022-08-11T22:09:36.268Z,100.00
2022-08-11T22:12:41.084Z,100.00
2022-08-11T22:15:17.861Z,100.00
2022-08-11T22:18:07.140Z,100.00
2022-08-11T22:20:58.054Z,100.00
2022-08-11T22:23:48.315Z,100.00
2022-08-11T22:26:41.359Z,100.00
2022-08-11T22:29:50.203Z,100.00
2022-08-11T22:32:26.129Z,100.00
2022-08-11T22:35:16.215Z,100.00
2022-08-11T22:38:07.407Z,100.00
2022-08-11T22:40:56.879Z,100.00
2022-08-11T22:43:46.556Z,100.00
2022-08-11T22:46:38.259Z,100.00
2022-08-11T22:49:28.359Z,100.00
2022-08-11T22:52:20.079Z,100.00
2022-08-11T22:55:10.564Z,100.00
2022-08-11T22:58:00.700Z,100.00
2022-08-11T23:00:50.825Z,100.00
2022-08-11T23:03:40.398Z,100.00
2022-08-11T23:06:29.765Z,100.00
2022-08-11T23:09:20.869Z,100.00
2022-08-11T23:12:11.698Z,100.00
2022-08-11T23:15:01.761Z,100.00
2022-08-11T23:17:52.861Z,100.00
2022-08-11T23:20:52.321Z,100.00
2022-08-11T23:23:34.859Z,100.00
2022-08-11T23:26:25.682Z,100.00
2022-08-11T23:29:15.454Z,100.00
2022-08-11T23:32:06.767Z,100.00
2022-08-11T23:35:04.615Z,100.00
2022-08-11T23:37:49.464Z,100.00
2022-08-11T23:40:38.613Z,100.00
2022-08-11T23:43:27.880Z,100.00
2022-08-11T23:46:17.480Z,100.00
2022-08-11T23:49:10.833Z,100.00
2022-08-11T23:52:01.715Z,100.00
2022-08-11T23:54:51.886Z,100.00
2022-08-11T23:57:47.634Z,100.00
